createdAt,value
2022-09-22T00:00:33.872Z,1008.65
2022-09-22T00:01:33.915Z,1008.66
2022-09-22T00:02:33.845Z,1008.67
2022-09-22T00:03:33.881Z,1008.68
2022-09-22T00:04:33.877Z,1008.7
2022-09-22T00:05:33.899Z,1008.66
2022-09-22T00:06:33.912Z,1008.7
2022-09-22T00:07:33.933Z,1008.71
2022-09-22T00:08:33.954Z,1008.69
2022-09-22T00:09:33.971Z,1008.65
2022-09-22T00:10:33.984Z,1008.63
2022-09-22T00:11:34.003Z,1008.61
2022-09-22T00:12:34.019Z,1008.61
2022-09-22T00:13:34.040Z,1008.66
2022-09-22T00:14:34.057Z,1008.63
2022-09-22T00:15:34.114Z,1008.64
2022-09-22T00:16:34.176Z,1008.65
2022-09-22T00:17:34.108Z,1008.65
2022-09-22T00:18:34.126Z,1008.62
2022-09-22T00:19:34.147Z,1008.61
2022-09-22T00:20:34.161Z,1008.57
2022-09-22T00:21:34.379Z,1008.56
2022-09-22T00:22:34.201Z,1008.56
2022-09-22T00:23:34.211Z,1008.54
2022-09-22T00:24:34.230Z,1008.51
2022-09-22T00:25:34.245Z,1008.54
2022-09-22T00:26:34.268Z,1008.53
2022-09-22T00:27:34.281Z,1008.54
2022-09-22T00:28:34.301Z,1008.5
2022-09-22T00:29:34.316Z,1008.5
2022-09-22T00:30:34.338Z,1008.51
2022-09-22T00:31:34.439Z,1008.48
2022-09-22T00:32:34.370Z,1008.51
2022-09-22T00:33:34.385Z,1008.47
2022-09-22T00:34:34.405Z,1008.47
2022-09-22T00:35:34.423Z,1008.45
2022-09-22T00:36:34.443Z,1008.45
2022-09-22T00:37:34.455Z,1008.46
2022-09-22T00:38:34.479Z,1008.47
2022-09-22T00:39:34.491Z,1008.45
2022-09-22T00:40:34.558Z,1008.43
2022-09-22T00:41:34.530Z,1008.46
2022-09-22T00:42:34.542Z,1008.46
2022-09-22T00:43:34.562Z,1008.44
2022-09-22T00:44:34.582Z,1008.43
2022-09-22T00:45:34.596Z,1008.47
2022-09-22T00:46:34.655Z,1008.45
2022-09-22T00:47:34.657Z,1008.47
2022-09-22T00:48:34.653Z,1008.45
2022-09-22T00:49:34.668Z,1008.45
2022-09-22T00:50:34.685Z,1008.45
2022-09-22T00:51:34.703Z,1008.43
2022-09-22T00:52:34.722Z,1008.44
2022-09-22T00:53:34.736Z,1008.43
2022-09-22T00:54:34.756Z,1008.45
2022-09-22T00:55:34.770Z,1008.43
2022-09-22T00:56:34.792Z,1008.41
2022-09-22T00:57:34.808Z,1008.38
2022-09-22T00:58:34.827Z,1008.39
2022-09-22T00:59:34.842Z,1008.37
2022-09-22T01:00:34.873Z,1008.37
2022-09-22T01:01:34.924Z,1008.38
2022-09-22T01:02:34.895Z,1008.31
2022-09-22T01:03:34.938Z,1008.35
2022-09-22T01:04:34.932Z,1008.33
2022-09-22T01:05:34.948Z,1008.29
2022-09-22T01:06:34.967Z,1008.28
2022-09-22T01:07:34.980Z,1008.29
2022-09-22T01:08:35.001Z,1008.3
2022-09-22T01:09:35.017Z,1008.3
2022-09-22T01:10:35.035Z,1008.31
2022-09-22T01:11:35.052Z,1008.25
2022-09-22T01:12:35.072Z,1008.27
2022-09-22T01:13:35.087Z,1008.3
2022-09-22T01:14:35.102Z,1008.23
2022-09-22T01:15:35.166Z,1008.28
2022-09-22T01:16:35.138Z,1008.28
2022-09-22T01:17:35.160Z,1008.28
2022-09-22T01:18:35.174Z,1008.23
2022-09-22T01:19:35.215Z,1008.22
2022-09-22T01:20:35.210Z,1008.2
2022-09-22T01:21:35.478Z,1008.27
2022-09-22T01:22:35.282Z,1008.24
2022-09-22T01:23:35.262Z,1008.24
2022-09-22T01:24:35.278Z,1008.23
2022-09-22T01:25:35.295Z,1008.21
2022-09-22T01:26:35.312Z,1008.21
2022-09-22T01:27:35.334Z,1008.19
2022-09-22T01:28:35.346Z,1008.22
2022-09-22T01:29:35.365Z,1008.18
2022-09-22T01:30:35.381Z,1008.16
2022-09-22T01:31:35.441Z,1008.15
2022-09-22T01:32:35.415Z,1008.18
2022-09-22T01:33:35.435Z,1008.17
2022-09-22T01:34:35.450Z,1008.2
2022-09-22T01:35:35.495Z,1008.17
2022-09-22T01:36:35.487Z,1008.16
2022-09-22T01:37:35.506Z,1008.15
2022-09-22T01:38:35.522Z,1008.19
2022-09-22T01:39:35.540Z,1008.17
2022-09-22T01:40:35.627Z,1008.21
2022-09-22T01:41:35.581Z,1008.19
2022-09-22T01:42:35.591Z,1008.17
2022-09-22T01:43:35.609Z,1008.15
2022-09-22T01:44:35.626Z,1008.16
2022-09-22T01:45:35.642Z,1008.16
2022-09-22T01:46:35.690Z,1008.13
2022-09-22T01:47:35.678Z,1008.17
2022-09-22T01:48:35.694Z,1008.15
2022-09-22T01:49:35.715Z,1008.13
2022-09-22T01:50:35.729Z,1008.13
2022-09-22T01:51:35.773Z,1008.09
2022-09-22T01:52:35.771Z,1008.08
2022-09-22T01:53:35.786Z,1008.1
2022-09-22T01:54:35.798Z,1008.09
2022-09-22T01:55:35.820Z,1008.07
2022-09-22T01:56:35.832Z,1008.04
2022-09-22T01:57:35.854Z,1008.02
2022-09-22T01:58:35.869Z,1008.03
2022-09-22T01:59:35.889Z,1008.02
2022-09-22T02:00:35.903Z,1008.01
2022-09-22T02:01:36.021Z,1008
2022-09-22T02:02:36.065Z,1008
2022-09-22T02:03:35.961Z,1007.97
2022-09-22T02:04:35.974Z,1008.02
2022-09-22T02:05:35.990Z,1008
2022-09-22T02:06:36.010Z,1007.97
2022-09-22T02:07:36.051Z,1007.96
2022-09-22T02:08:36.043Z,1007.97
2022-09-22T02:09:36.059Z,1007.96
2022-09-22T02:10:36.080Z,1007.97
2022-09-22T02:11:36.093Z,1007.92
2022-09-22T02:12:36.113Z,1007.91
2022-09-22T02:13:36.128Z,1007.97
2022-09-22T02:14:36.147Z,1007.96
2022-09-22T02:15:36.217Z,1007.92
2022-09-22T02:16:36.183Z,1007.89
2022-09-22T02:17:36.196Z,1007.89
2022-09-22T02:18:36.215Z,1007.89
2022-09-22T02:19:36.232Z,1007.87
2022-09-22T02:20:36.251Z,1007.86
2022-09-22T02:21:36.667Z,1007.85
2022-09-22T02:22:36.285Z,1007.82
2022-09-22T02:23:36.327Z,1007.86
2022-09-22T02:24:36.318Z,1007.84
2022-09-22T02:25:36.334Z,1007.84
2022-09-22T02:26:36.354Z,1007.84
2022-09-22T02:27:36.371Z,1007.82
2022-09-22T02:28:36.388Z,1007.8
2022-09-22T02:29:36.404Z,1007.79
2022-09-22T02:30:36.427Z,1007.76
2022-09-22T02:31:36.538Z,1007.79
2022-09-22T02:32:36.457Z,1007.8
2022-09-22T02:33:38.273Z,1007.81
2022-09-22T02:34:36.492Z,1007.78
2022-09-22T02:35:36.507Z,1007.77
2022-09-22T02:36:36.541Z,1007.77
2022-09-22T02:37:36.540Z,1007.78
2022-09-22T02:38:36.562Z,1007.79
2022-09-22T02:39:36.602Z,1007.79
2022-09-22T02:40:36.618Z,1007.8
2022-09-22T02:41:36.610Z,1007.76
2022-09-22T02:42:36.630Z,1007.77
2022-09-22T02:43:36.645Z,1007.74
2022-09-22T02:44:36.664Z,1007.75
2022-09-22T02:45:36.678Z,1007.74
2022-09-22T02:46:36.727Z,1007.72
2022-09-22T02:47:36.715Z,1007.69
2022-09-22T02:48:36.732Z,1007.68
2022-09-22T02:49:36.747Z,1007.71
2022-09-22T02:50:36.771Z,1007.74
2022-09-22T02:51:36.782Z,1007.72
2022-09-22T02:52:36.805Z,1007.7
2022-09-22T02:53:36.815Z,1007.71
2022-09-22T02:54:36.836Z,1007.69
2022-09-22T02:55:36.876Z,1007.67
2022-09-22T02:56:36.865Z,1007.66
2022-09-22T02:57:36.885Z,1007.66
2022-09-22T02:58:36.902Z,1007.65
2022-09-22T02:59:36.920Z,1007.64
2022-09-22T03:00:36.934Z,1007.67
2022-09-22T03:01:37.018Z,1007.59
2022-09-22T03:02:36.970Z,1007.58
2022-09-22T03:03:36.989Z,1007.59
2022-09-22T03:04:37.010Z,1007.6
2022-09-22T03:05:37.022Z,1007.59
2022-09-22T03:06:37.040Z,1007.57
2022-09-22T03:07:37.055Z,1007.61
2022-09-22T03:08:37.071Z,1007.53
2022-09-22T03:09:37.090Z,1007.57
2022-09-22T03:10:37.106Z,1007.56
2022-09-22T03:11:37.151Z,1007.56
2022-09-22T03:12:37.139Z,1007.52
2022-09-22T03:13:37.161Z,1007.51
2022-09-22T03:14:37.177Z,1007.5
2022-09-22T03:15:37.224Z,1007.51
2022-09-22T03:16:37.210Z,1007.51
2022-09-22T03:17:37.229Z,1007.47
2022-09-22T03:18:37.243Z,1007.48
2022-09-22T03:19:37.268Z,1007.49
2022-09-22T03:20:37.278Z,1007.48
2022-09-22T03:21:37.346Z,1007.48
2022-09-22T03:22:37.311Z,1007.45
2022-09-22T03:23:37.332Z,1007.47
2022-09-22T03:24:37.348Z,1007.46
2022-09-22T03:25:37.364Z,1007.49
2022-09-22T03:26:37.380Z,1007.48
2022-09-22T03:27:37.423Z,1007.44
2022-09-22T03:28:37.416Z,1007.44
2022-09-22T03:29:37.435Z,1007.43
2022-09-22T03:30:37.501Z,1007.4
2022-09-22T03:31:37.470Z,1007.41
2022-09-22T03:32:37.486Z,1007.44
2022-09-22T03:33:37.503Z,1007.4
2022-09-22T03:34:37.518Z,1007.39
2022-09-22T03:35:37.534Z,1007.38
2022-09-22T03:36:37.551Z,1007.39
2022-09-22T03:37:37.572Z,1007.41
2022-09-22T03:38:37.580Z,1007.37
2022-09-22T03:39:37.605Z,1007.33
2022-09-22T03:40:37.666Z,1007.34
2022-09-22T03:41:37.638Z,1007.34
2022-09-22T03:42:37.652Z,1007.34
2022-09-22T03:43:37.695Z,1007.32
2022-09-22T03:44:37.688Z,1007.33
2022-09-22T03:45:37.776Z,1007.34
2022-09-22T03:46:37.722Z,1007.35
2022-09-22T03:47:37.739Z,1007.32
2022-09-22T03:48:40.653Z,1007.31
2022-09-22T03:49:37.771Z,1007.32
2022-09-22T03:50:37.794Z,1007.3
2022-09-22T03:51:37.809Z,1007.33
2022-09-22T03:52:37.826Z,1007.3
2022-09-22T03:53:37.842Z,1007.3
2022-09-22T03:54:37.859Z,1007.34
2022-09-22T03:55:37.875Z,1007.32
2022-09-22T03:56:37.895Z,1007.31
2022-09-22T03:57:37.907Z,1007.35
2022-09-22T03:58:37.930Z,1007.3
2022-09-22T03:59:37.968Z,1007.35
2022-09-22T04:00:37.964Z,1007.32
2022-09-22T04:01:38.008Z,1007.33
2022-09-22T04:02:38.040Z,1007.31
2022-09-22T04:03:38.014Z,1007.31
2022-09-22T04:04:38.032Z,1007.33
2022-09-22T04:05:38.045Z,1007.31
2022-09-22T04:06:38.066Z,1007.3
2022-09-22T04:07:38.080Z,1007.32
2022-09-22T04:08:38.100Z,1007.28
2022-09-22T04:09:38.118Z,1007.28
2022-09-22T04:10:38.133Z,1007.26
2022-09-22T04:11:38.149Z,1007.28
2022-09-22T04:12:38.167Z,1007.26
2022-09-22T04:13:40.592Z,1007.24
2022-09-22T04:14:38.202Z,1007.25
2022-09-22T04:15:38.233Z,1007.27
2022-09-22T04:16:38.291Z,1007.27
2022-09-22T04:17:38.251Z,1007.25
2022-09-22T04:18:38.272Z,1007.28
2022-09-22T04:19:38.284Z,1007.29
2022-09-22T04:20:38.304Z,1007.24
2022-09-22T04:21:38.472Z,1007.25
2022-09-22T04:22:38.337Z,1007.23
2022-09-22T04:23:38.353Z,1007.26
2022-09-22T04:24:38.373Z,1007.2
2022-09-22T04:25:38.394Z,1007.26
2022-09-22T04:26:38.405Z,1007.21
2022-09-22T04:27:38.423Z,1007.21
2022-09-22T04:28:38.442Z,1007.21
2022-09-22T04:29:38.457Z,1007.2
2022-09-22T04:30:38.495Z,1007.16
2022-09-22T04:31:38.515Z,1007.2
2022-09-22T04:32:38.510Z,1007.18
2022-09-22T04:33:38.523Z,1007.14
2022-09-22T04:34:38.545Z,1007.12
2022-09-22T04:35:38.559Z,1007.12
2022-09-22T04:36:38.578Z,1007.13
2022-09-22T04:37:38.595Z,1007.12
2022-09-22T04:38:38.610Z,1007.15
2022-09-22T04:39:38.630Z,1007.13
2022-09-22T04:40:38.714Z,1007.13
2022-09-22T04:41:38.665Z,1007.11
2022-09-22T04:42:38.678Z,1007.13
2022-09-22T04:43:38.699Z,1007.15
2022-09-22T04:44:38.711Z,1007.13
2022-09-22T04:45:39.756Z,1007.08
2022-09-22T04:46:38.746Z,1007.12
2022-09-22T04:47:38.790Z,1007.15
2022-09-22T04:48:38.780Z,1007.14
2022-09-22T04:49:38.800Z,1007.1
2022-09-22T04:50:38.816Z,1007.08
2022-09-22T04:51:38.834Z,1007.13
2022-09-22T04:52:38.850Z,1007.1
2022-09-22T04:53:38.868Z,1007.09
2022-09-22T04:54:38.886Z,1007.1
2022-09-22T04:55:38.903Z,1007.11
2022-09-22T04:56:38.918Z,1007.11
2022-09-22T04:57:38.939Z,1007.11
2022-09-22T04:58:38.952Z,1007.12
2022-09-22T04:59:38.971Z,1007.13
2022-09-22T05:00:38.987Z,1007.12
2022-09-22T05:01:39.093Z,1007.12
2022-09-22T05:02:39.020Z,1007.13
2022-09-22T05:03:39.135Z,1007.07
2022-09-22T05:04:39.055Z,1007.11
2022-09-22T05:05:39.073Z,1007.14
2022-09-22T05:06:39.091Z,1007.11
2022-09-22T05:07:39.105Z,1007.11
2022-09-22T05:08:39.123Z,1007.16
2022-09-22T05:09:39.145Z,1007.16
2022-09-22T05:10:39.156Z,1007.2
2022-09-22T05:11:39.175Z,1007.14
2022-09-22T05:12:39.191Z,1007.17
2022-09-22T05:13:39.210Z,1007.2
2022-09-22T05:14:39.225Z,1007.21
2022-09-22T05:15:39.243Z,1007.22
2022-09-22T05:16:39.331Z,1007.21
2022-09-22T05:17:39.279Z,1007.22
2022-09-22T05:18:39.293Z,1007.22
2022-09-22T05:19:39.335Z,1007.21
2022-09-22T05:20:39.327Z,1007.2
2022-09-22T05:21:39.350Z,1007.22
2022-09-22T05:22:40.111Z,1007.24
2022-09-22T05:23:39.386Z,1007.21
2022-09-22T05:24:39.393Z,1007.2
2022-09-22T05:25:39.413Z,1007.21
2022-09-22T05:26:39.426Z,1007.2
2022-09-22T05:27:39.448Z,1007.23
2022-09-22T05:28:39.464Z,1007.26
2022-09-22T05:29:39.485Z,1007.27
2022-09-22T05:30:39.644Z,1007.29
2022-09-22T05:31:39.562Z,1007.27
2022-09-22T05:32:39.532Z,1007.3
2022-09-22T05:33:39.547Z,1007.31
2022-09-22T05:34:39.570Z,1007.28
2022-09-22T05:35:39.603Z,1007.29
2022-09-22T05:36:39.600Z,1007.29
2022-09-22T05:37:39.616Z,1007.26
2022-09-22T05:38:39.635Z,1007.27
2022-09-22T05:39:39.650Z,1007.25
2022-09-22T05:40:39.721Z,1007.29
2022-09-22T05:41:39.682Z,1007.28
2022-09-22T05:42:39.705Z,1007.29
2022-09-22T05:43:39.718Z,1007.29
2022-09-22T05:44:39.736Z,1007.29
2022-09-22T05:45:39.796Z,1007.27
2022-09-22T05:46:39.769Z,1007.23
2022-09-22T05:47:39.787Z,1007.24
2022-09-22T05:48:39.805Z,1007.27
2022-09-22T05:49:39.818Z,1007.23
2022-09-22T05:50:39.834Z,1007.26
2022-09-22T05:51:39.884Z,1007.22
2022-09-22T05:52:39.887Z,1007.21
2022-09-22T05:53:39.894Z,1007.23
2022-09-22T05:54:39.915Z,1007.24
2022-09-22T05:55:39.925Z,1007.28
2022-09-22T05:56:39.940Z,1007.27
2022-09-22T05:57:39.955Z,1007.24
2022-09-22T05:58:39.972Z,1007.32
2022-09-22T05:59:39.989Z,1007.31
2022-09-22T06:00:40.097Z,1007.29
2022-09-22T06:01:40.023Z,1007.29
2022-09-22T06:02:40.132Z,1007.31
2022-09-22T06:03:40.057Z,1007.32
2022-09-22T06:04:40.075Z,1007.33
2022-09-22T06:05:40.093Z,1007.32
2022-09-22T06:06:40.102Z,1007.3
2022-09-22T06:07:40.204Z,1007.29
2022-09-22T06:08:42.106Z,1007.32
2022-09-22T06:09:40.158Z,1007.27
2022-09-22T06:10:40.178Z,1007.29
2022-09-22T06:11:40.196Z,1007.31
2022-09-22T06:12:40.210Z,1007.29
2022-09-22T06:13:40.229Z,1007.3
2022-09-22T06:14:40.245Z,1007.3
2022-09-22T06:15:40.261Z,1007.3
2022-09-22T06:16:40.342Z,1007.28
2022-09-22T06:17:40.295Z,1007.27
2022-09-22T06:18:40.313Z,1007.33
2022-09-22T06:19:40.335Z,1007.28
2022-09-22T06:20:40.345Z,1007.31
2022-09-22T06:21:40.367Z,1007.32
2022-09-22T06:22:40.384Z,1007.32
2022-09-22T06:23:42.809Z,1007.3
2022-09-22T06:24:40.415Z,1007.3
2022-09-22T06:25:40.436Z,1007.33
2022-09-22T06:26:40.451Z,1007.29
2022-09-22T06:27:40.468Z,1007.31
2022-09-22T06:28:40.486Z,1007.32
2022-09-22T06:29:40.505Z,1007.29
2022-09-22T06:30:40.518Z,1007.3
2022-09-22T06:31:40.555Z,1007.33
2022-09-22T06:32:40.555Z,1007.3
2022-09-22T06:33:40.575Z,1007.3
2022-09-22T06:34:40.589Z,1007.3
2022-09-22T06:35:40.604Z,1007.31
2022-09-22T06:36:40.622Z,1007.3
2022-09-22T06:37:40.642Z,1007.28
2022-09-22T06:38:40.713Z,1007.33
2022-09-22T06:39:40.706Z,1007.34
2022-09-22T06:40:40.740Z,1007.33
2022-09-22T06:41:40.709Z,1007.34
2022-09-22T06:42:40.726Z,1007.39
2022-09-22T06:43:40.751Z,1007.34
2022-09-22T06:44:40.760Z,1007.38
2022-09-22T06:45:40.829Z,1007.35
2022-09-22T06:46:40.795Z,1007.33
2022-09-22T06:47:40.816Z,1007.34
2022-09-22T06:48:40.828Z,1007.37
2022-09-22T06:49:40.849Z,1007.35
2022-09-22T06:50:41.185Z,1007.33
2022-09-22T06:51:40.880Z,1007.35
2022-09-22T06:52:40.897Z,1007.38
2022-09-22T06:53:40.917Z,1007.37
2022-09-22T06:54:40.933Z,1007.38
2022-09-22T06:55:40.979Z,1007.36
2022-09-22T06:56:40.966Z,1007.36
2022-09-22T06:57:40.989Z,1007.37
2022-09-22T06:58:58.875Z,1007.36
2022-09-22T06:59:41.013Z,1007.35
2022-09-22T07:00:41.153Z,1007.35
2022-09-22T07:01:41.137Z,1007.33
2022-09-22T07:02:41.073Z,1007.36
2022-09-22T07:03:41.091Z,1007.34
2022-09-22T07:04:41.105Z,1007.39
2022-09-22T07:05:41.126Z,1007.39
2022-09-22T07:06:41.146Z,1007.37
2022-09-22T07:07:41.161Z,1007.33
2022-09-22T07:08:41.175Z,1007.37
2022-09-22T07:09:41.195Z,1007.32
2022-09-22T07:10:41.211Z,1007.34
2022-09-22T07:11:41.253Z,1007.37
2022-09-22T07:12:41.247Z,1007.39
2022-09-22T07:13:41.263Z,1007.33
2022-09-22T07:14:41.282Z,1007.35
2022-09-22T07:15:41.298Z,1007.38
2022-09-22T07:16:41.394Z,1007.38
2022-09-22T07:17:41.332Z,1007.38
2022-09-22T07:18:41.352Z,1007.41
2022-09-22T07:19:41.367Z,1007.37
2022-09-22T07:20:41.385Z,1007.39
2022-09-22T07:21:41.403Z,1007.4
2022-09-22T07:22:41.423Z,1007.44
2022-09-22T07:23:41.438Z,1007.4
2022-09-22T07:24:41.459Z,1007.39
2022-09-22T07:25:41.478Z,1007.39
2022-09-22T07:26:41.493Z,1007.39
2022-09-22T07:27:41.534Z,1007.39
2022-09-22T07:28:41.527Z,1007.4
2022-09-22T07:29:41.542Z,1007.42
2022-09-22T07:30:41.564Z,1007.37
2022-09-22T07:31:41.793Z,1007.39
2022-09-22T07:32:41.601Z,1007.37
2022-09-22T07:33:41.613Z,1007.34
2022-09-22T07:34:41.634Z,1007.37
2022-09-22T07:35:41.653Z,1007.37
2022-09-22T07:36:41.666Z,1007.38
2022-09-22T07:37:41.687Z,1007.36
2022-09-22T07:38:41.705Z,1007.36
2022-09-22T07:39:41.719Z,1007.36
2022-09-22T07:40:41.779Z,1007.39
2022-09-22T07:41:41.888Z,1007.36
2022-09-22T07:42:41.777Z,1007.42
2022-09-22T07:43:41.812Z,1007.34
2022-09-22T07:44:44.428Z,1007.39
2022-09-22T07:45:41.824Z,1007.39
2022-09-22T07:46:41.879Z,1007.42
2022-09-22T07:47:41.860Z,1007.37
2022-09-22T07:48:41.881Z,1007.4
2022-09-22T07:49:41.897Z,1007.39
2022-09-22T07:50:41.915Z,1007.36
2022-09-22T07:51:41.933Z,1007.38
2022-09-22T07:52:41.952Z,1007.42
2022-09-22T07:53:41.968Z,1007.38
2022-09-22T07:54:41.982Z,1007.43
2022-09-22T07:55:42.002Z,1007.41
2022-09-22T07:56:42.023Z,1007.4
2022-09-22T07:57:42.038Z,1007.4
2022-09-22T07:58:42.056Z,1007.41
2022-09-22T07:59:42.099Z,1007.42
2022-09-22T08:00:42.126Z,1007.43
2022-09-22T08:01:42.208Z,1007.47
2022-09-22T08:02:42.127Z,1007.42
2022-09-22T08:03:42.149Z,1007.44
2022-09-22T08:04:42.168Z,1007.44
2022-09-22T08:05:42.183Z,1007.48
2022-09-22T08:06:42.199Z,1007.43
2022-09-22T08:07:42.224Z,1007.51
2022-09-22T08:08:42.238Z,1007.46
2022-09-22T08:09:42.255Z,1007.44
2022-09-22T08:10:42.272Z,1007.48
2022-09-22T08:11:42.291Z,1007.42
2022-09-22T08:12:42.308Z,1007.44
2022-09-22T08:13:42.326Z,1007.41
2022-09-22T08:14:42.344Z,1007.43
2022-09-22T08:15:42.520Z,1007.42
2022-09-22T08:16:42.389Z,1007.45
2022-09-22T08:17:42.396Z,1007.4
2022-09-22T08:18:42.414Z,1007.39
2022-09-22T08:19:42.436Z,1007.42
2022-09-22T08:20:44.887Z,1007.42
2022-09-22T08:21:48.259Z,1007.4
2022-09-22T08:22:42.486Z,1007.42
2022-09-22T08:23:42.506Z,1007.4
2022-09-22T08:24:42.522Z,1007.39
2022-09-22T08:25:42.542Z,1007.43
2022-09-22T08:26:46.029Z,1007.41
2022-09-22T08:27:42.578Z,1007.38
2022-09-22T08:28:42.592Z,1007.41
2022-09-22T08:29:42.614Z,1007.38
2022-09-22T08:30:42.631Z,1007.4
2022-09-22T08:31:42.821Z,1007.39
2022-09-22T08:32:42.668Z,1007.4
2022-09-22T08:33:42.686Z,1007.4
2022-09-22T08:34:42.702Z,1007.41
2022-09-22T08:35:42.722Z,1007.38
2022-09-22T08:36:43.085Z,1007.37
2022-09-22T08:37:42.757Z,1007.36
2022-09-22T08:38:42.772Z,1007.41
2022-09-22T08:39:42.792Z,1007.38
2022-09-22T08:40:42.855Z,1007.38
2022-09-22T08:41:42.830Z,1007.38
2022-09-22T08:42:42.844Z,1007.36
2022-09-22T08:43:42.865Z,1007.38
2022-09-22T08:44:42.881Z,1007.38
2022-09-22T08:45:42.895Z,1007.37
2022-09-22T08:46:42.989Z,1007.34
2022-09-22T08:47:42.963Z,1007.39
2022-09-22T08:48:42.952Z,1007.38
2022-09-22T08:49:42.971Z,1007.36
2022-09-22T08:50:42.990Z,1007.42
2022-09-22T08:51:43.009Z,1007.41
2022-09-22T08:52:43.024Z,1007.4
2022-09-22T08:53:43.052Z,1007.46
2022-09-22T08:54:43.063Z,1007.45
2022-09-22T08:55:43.078Z,1007.46
2022-09-22T08:56:43.097Z,1007.43
2022-09-22T08:57:43.114Z,1007.4
2022-09-22T08:58:43.134Z,1007.45
2022-09-22T08:59:43.150Z,1007.44
2022-09-22T09:00:43.170Z,1007.42
2022-09-22T09:01:43.241Z,1007.42
2022-09-22T09:02:43.286Z,1007.46
2022-09-22T09:03:43.250Z,1007.42
2022-09-22T09:04:43.241Z,1007.4
2022-09-22T09:05:43.256Z,1007.42
2022-09-22T09:06:43.279Z,1007.41
2022-09-22T09:07:43.309Z,1007.43
2022-09-22T09:08:43.313Z,1007.43
2022-09-22T09:09:43.348Z,1007.44
2022-09-22T09:10:43.350Z,1007.43
2022-09-22T09:11:43.367Z,1007.42
2022-09-22T09:12:43.389Z,1007.43
2022-09-22T09:13:43.403Z,1007.42
2022-09-22T09:14:43.425Z,1007.46
2022-09-22T09:15:43.470Z,1007.46
2022-09-22T09:16:43.456Z,1007.46
2022-09-22T09:17:43.477Z,1007.45
2022-09-22T09:18:43.493Z,1007.45
2022-09-22T09:19:43.535Z,1007.43
2022-09-22T09:20:43.529Z,1007.44
2022-09-22T09:21:43.546Z,1007.42
2022-09-22T09:22:44.935Z,1007.42
2022-09-22T09:25:28.432Z,1007.45
2022-09-22T09:26:28.273Z,1007.44
2022-09-22T09:27:28.292Z,1007.45
2022-09-22T09:28:28.385Z,1007.41
2022-09-22T09:29:28.330Z,1007.45
2022-09-22T09:30:28.458Z,1007.44
2022-09-22T09:31:28.403Z,1007.42
2022-09-22T09:32:28.381Z,1007.43
2022-09-22T09:33:28.402Z,1007.4
2022-09-22T09:34:28.417Z,1007.44
2022-09-22T09:35:28.464Z,1007.41
2022-09-22T09:36:28.456Z,1007.41
2022-09-22T09:37:28.673Z,1007.41
2022-09-22T09:38:28.487Z,1007.39
2022-09-22T09:39:28.509Z,1007.38
2022-09-22T09:40:28.634Z,1007.36
2022-09-22T09:41:28.545Z,1007.36
2022-09-22T09:42:28.561Z,1007.4
2022-09-22T09:43:28.584Z,1007.39
2022-09-22T09:44:28.598Z,1007.36
2022-09-22T09:45:28.619Z,1007.37
2022-09-22T09:46:28.650Z,1007.37
2022-09-22T09:47:28.655Z,1007.35
2022-09-22T09:48:28.675Z,1007.32
2022-09-22T09:49:28.690Z,1007.31
2022-09-22T09:50:28.710Z,1007.32
2022-09-22T09:51:28.779Z,1007.28
2022-09-22T09:52:28.750Z,1007.3
2022-09-22T09:53:28.761Z,1007.26
2022-09-22T09:54:28.785Z,1007.26
2022-09-22T09:55:28.801Z,1007.25
2022-09-22T09:56:28.819Z,1007.29
2022-09-22T09:57:28.833Z,1007.24
2022-09-22T09:58:28.856Z,1007.24
2022-09-22T09:59:28.874Z,1007.25
2022-09-22T10:00:28.893Z,1007.2
2022-09-22T10:01:28.925Z,1007.18
2022-09-22T10:02:28.926Z,1007.16
2022-09-22T10:03:28.990Z,1007.12
2022-09-22T10:04:28.965Z,1007.11
2022-09-22T10:05:28.991Z,1007.13
2022-09-22T10:06:29.000Z,1007.09
2022-09-22T10:07:29.043Z,1007.14
2022-09-22T10:08:29.038Z,1007.12
2022-09-22T10:09:29.056Z,1007.12
2022-09-22T10:10:29.073Z,1007.09
2022-09-22T10:11:29.094Z,1007.09
2022-09-22T10:12:29.114Z,1007.11
2022-09-22T10:13:29.129Z,1007.06
2022-09-22T10:14:29.147Z,1007.08
2022-09-22T10:15:29.192Z,1007.05
2022-09-22T10:16:29.189Z,1007.04
2022-09-22T10:17:29.199Z,1007.07
2022-09-22T10:18:29.222Z,1007.02
2022-09-22T10:19:29.240Z,1007.01
2022-09-22T10:20:29.261Z,1007.02
2022-09-22T10:21:29.276Z,1007.04
2022-09-22T10:22:29.294Z,1007
2022-09-22T10:23:29.336Z,1006.97
2022-09-22T10:24:29.330Z,1007
2022-09-22T10:25:29.349Z,1006.98
2022-09-22T10:26:29.367Z,1006.96
2022-09-22T10:27:29.384Z,1006.9
2022-09-22T10:28:29.410Z,1006.95
2022-09-22T10:29:29.422Z,1006.94
2022-09-22T10:30:29.441Z,1006.9
2022-09-22T10:31:29.490Z,1006.87
2022-09-22T10:32:29.477Z,1006.92
2022-09-22T10:33:29.496Z,1006.9
2022-09-22T10:34:29.517Z,1006.92
2022-09-22T10:35:29.530Z,1006.89
2022-09-22T10:36:29.555Z,1006.86
2022-09-22T10:37:29.971Z,1006.88
2022-09-22T10:38:29.617Z,1006.9
2022-09-22T10:39:29.671Z,1006.87
2022-09-22T10:40:29.660Z,1006.86
2022-09-22T10:41:29.646Z,1006.83
2022-09-22T10:42:29.661Z,1006.81
2022-09-22T10:43:29.680Z,1006.81
2022-09-22T10:44:48.316Z,1006.8
2022-09-22T10:45:29.746Z,1006.79
2022-09-22T10:46:29.760Z,1006.79
2022-09-22T10:47:29.760Z,1006.79
2022-09-22T10:48:29.782Z,1006.75
2022-09-22T10:49:29.794Z,1006.76
2022-09-22T10:50:29.811Z,1006.74
2022-09-22T10:51:29.830Z,1006.73
2022-09-22T10:52:29.849Z,1006.75
2022-09-22T10:53:29.867Z,1006.69
2022-09-22T10:54:29.883Z,1006.65
2022-09-22T10:55:29.933Z,1006.68
2022-09-22T10:56:29.921Z,1006.68
2022-09-22T10:57:29.945Z,1006.68
2022-09-22T10:58:29.960Z,1006.67
2022-09-22T10:59:29.980Z,1006.7
2022-09-22T11:00:29.995Z,1006.66
2022-09-22T11:01:30.040Z,1006.72
2022-09-22T11:02:30.033Z,1006.68
2022-09-22T11:03:30.052Z,1006.71
2022-09-22T11:04:30.166Z,1006.7
2022-09-22T11:05:30.090Z,1006.67
2022-09-22T11:06:30.109Z,1006.69
2022-09-22T11:07:30.126Z,1006.71
2022-09-22T11:08:30.146Z,1006.66
2022-09-22T11:09:30.256Z,1006.67
2022-09-22T11:10:30.184Z,1006.69
2022-09-22T11:11:30.230Z,1006.66
2022-09-22T11:12:30.216Z,1006.7
2022-09-22T11:13:30.238Z,1006.68
2022-09-22T11:14:30.255Z,1006.66
2022-09-22T11:15:30.339Z,1006.7
2022-09-22T11:16:30.292Z,1006.67
2022-09-22T11:17:30.316Z,1006.66
2022-09-22T11:18:30.330Z,1006.61
2022-09-22T11:19:30.352Z,1006.57
2022-09-22T11:20:30.368Z,1006.58
2022-09-22T11:21:30.388Z,1006.55
2022-09-22T11:22:30.405Z,1006.56
2022-09-22T11:23:30.428Z,1006.52
2022-09-22T11:24:30.453Z,1006.59
2022-09-22T11:25:30.462Z,1006.58
2022-09-22T11:26:30.480Z,1006.55
2022-09-22T11:27:30.528Z,1006.52
2022-09-22T11:28:30.518Z,1006.47
2022-09-22T11:29:30.537Z,1006.51
2022-09-22T11:30:30.562Z,1006.52
2022-09-22T11:31:30.577Z,1006.53
2022-09-22T11:32:30.594Z,1006.52
2022-09-22T11:33:30.612Z,1006.52
2022-09-22T11:34:30.633Z,1006.52
2022-09-22T11:35:30.665Z,1006.54
2022-09-22T11:36:30.669Z,1006.52
2022-09-22T11:37:31.036Z,1006.53
2022-09-22T11:38:30.709Z,1006.56
2022-09-22T11:39:30.723Z,1006.53
2022-09-22T11:40:30.772Z,1006.6
2022-09-22T11:41:30.762Z,1006.57
2022-09-22T11:42:30.783Z,1006.55
2022-09-22T11:43:30.829Z,1006.54
2022-09-22T11:44:30.823Z,1006.55
2022-09-22T11:45:30.837Z,1006.51
2022-09-22T11:46:30.929Z,1006.51
2022-09-22T11:47:30.879Z,1006.46
2022-09-22T11:48:30.899Z,1006.48
2022-09-22T11:49:30.915Z,1006.47
2022-09-22T11:50:30.937Z,1006.43
2022-09-22T11:51:30.953Z,1006.41
2022-09-22T11:52:30.975Z,1006.43
2022-09-22T11:53:30.990Z,1006.4
2022-09-22T11:54:31.013Z,1006.4
2022-09-22T11:55:31.028Z,1006.36
2022-09-22T11:56:31.050Z,1006.35
2022-09-22T11:57:31.068Z,1006.34
2022-09-22T11:58:31.088Z,1006.35
2022-09-22T11:59:31.130Z,1006.35
2022-09-22T12:00:31.128Z,1006.34
2022-09-22T12:01:31.143Z,1006.34
2022-09-22T12:02:31.275Z,1006.35
2022-09-22T12:03:31.279Z,1006.28
2022-09-22T12:04:31.206Z,1006.31
2022-09-22T12:05:31.220Z,1006.32
2022-09-22T12:06:31.243Z,1006.28
2022-09-22T12:07:31.258Z,1006.26
2022-09-22T12:08:31.280Z,1006.27
2022-09-22T12:09:32.814Z,1006.26
2022-09-22T12:10:31.332Z,1006.24